• Join FlightAware (Why Join?)
  • Login
  • US Flag 
10:05PM EST


 

Airport Tracker/Info


-or-


 

Live Flight TrackerFlight Track Log ✈ ASQ6127 ✈ 01-Jul-2013 ✈ KPIT - KIAH

Flight Track Log - Related Links

Times and Time Zones

All times are in EDT time to prevent confusion due to time zone crossing. See the ASQ6127 flight status page for this flight to view local times or setup timezone preferences in your user account.

Time Position Orientation Groundspeed Altitude Reporting Facility
EDT Latitude Longitude Course Direction KTS MPH feet Rate Location/Type
03:06PM 40.5419 -80.2033 261° West 265 305 5,400  Level Cleveland Center
03:07PM 40.5358 -80.2936 265° West 284 327 7,900 2,340 Climbing Cleveland Center
03:08PM 40.4667 -80.7305 270° West  Level FlightAware Approximate
03:08PM 40.5361 -80.3808 270° West 272 313 10,100  Level Cleveland Center
03:09PM 40.4667 -80.8593 270° West  Level FlightAware Approximate
03:09PM 40.5319 -80.4903 267° West 285 328 11,800  Level Cleveland Center
03:10PM 40.4667 -80.9882 270° West  Level FlightAware Approximate
03:10PM 40.5133 -80.6050 258° West 304 350 13,600  Level Cleveland Center
03:11PM 40.4667 -81.1171 270° West  Level FlightAware Approximate
03:11PM 40.4944 -80.7169 258° West 316 364 15,900  Level Cleveland Center
03:12PM 40.4569 -81.2449 261° West  Level FlightAware Approximate
03:12PM 40.4714 -80.8369 256° West 316 364 16,900  Level Cleveland Center
03:13PM 40.4500 -80.9622 257° West 329 379 17,900 1,020 Climbing Cleveland Center
03:15PM 40.3678 -81.1825 244° Southwest 335 386 20,100 1,080 Climbing Cleveland Center
03:16PM 40.2922 -81.2689 221° Southwest 347 399 21,200 1,020 Climbing Cleveland Center
03:18PM 40.2144 -81.3547 220° Southwest 353 406 22,400 1,080 Climbing Indianapolis Center
03:19PM 40.1406 -81.4411 222° Southwest 353 406 23,600 1,080 Climbing Indianapolis Center
03:20PM 40.0669 -81.5247 221° Southwest 349 402 24,700 1,080 Climbing Indianapolis Center
03:21PM 39.9939 -81.6083 221° Southwest 345 397 25,900 1,140 Climbing Indianapolis Center
03:22PM 39.9117 -81.7017 221° Southwest 347 399 27,100 1,140 Climbing Indianapolis Center
03:23PM 39.8386 -81.7847 221° Southwest 345 397 28,300 1,080 Climbing Indianapolis Center
03:24PM 39.7672 -81.8656 221° Southwest 340 391 29,400 1,140 Climbing Indianapolis Center
03:25PM 39.6972 -81.9450 221° Southwest 337 388 30,700 1,260 Climbing Indianapolis Center
03:26PM 39.6281 -82.0233 221° Southwest 331 381 32,000 1,260 Climbing Indianapolis Center
03:27PM 39.5606 -82.0989 221° Southwest 324 373 33,400 1,200 Climbing Indianapolis Center
03:28PM 39.4914 -82.1750 220° Southwest 312 359 34,500 1,020 Climbing Indianapolis Center
03:29PM 39.4189 -82.2578 221° Southwest 306 352 35,600 720 Climbing Indianapolis Center
03:30PM 39.3547 -82.3278 220° Southwest 302 348 36,000 180 Climbing Indianapolis Center
03:31PM 39.2881 -82.4017 221° Southwest 313 360 36,000  Level Indianapolis Center
03:32PM 39.2264 -82.5039 232° Southwest 339 390 36,000  Level Indianapolis Center
03:33PM 39.1739 -82.6119 238° Southwest 350 403 36,000 120 Level Indianapolis Center
03:34PM 39.1261 -82.7086 238° Southwest 352 405 36,300 480 Climbing Indianapolis Center
03:35PM 39.0739 -82.8136 237° Southwest 349 402 37,000 300 Climbing Indianapolis Center
03:36PM 39.0103 -82.9381 237° Southwest 347 399 37,000  Level Indianapolis Center
03:37PM 38.9503 -83.0347 231° Southwest 348 400 37,000  Level Indianapolis Center
03:38PM 38.8858 -83.1267 228° Southwest 347 399 37,000  Level Indianapolis Center
03:39PM 38.8192 -83.2100 224° Southwest 347 399 37,000  Level Indianapolis Center
03:40PM 38.7444 -83.2894 220° Southwest 346 398 37,000  Level Indianapolis Center
03:41PM 38.6700 -83.3678 219° Southwest 344 396 37,000  Level Indianapolis Center
03:42PM 38.5767 -83.4492 214° Southwest 343 395 37,000  Level Indianapolis Center
03:43PM 38.4950 -83.5125 211° Southwest 343 395 37,000  Level Indianapolis Center
03:44PM 38.4122 -83.5778 212° Southwest 347 399 37,000 -120 Level Indianapolis Center
03:45PM 38.3317 -83.6461 214° Southwest 347 399 36,800 -420 Descending Indianapolis Center
03:46PM 38.2656 -83.7461 230° Southwest 365 420 36,200 -420 Descending Indianapolis Center
03:47PM 38.1986 -83.8411 228° Southwest 363 418 36,000 -120 Descending Indianapolis Center
03:48PM 38.1317 -83.9381 229° Southwest 365 420 36,000  Level Indianapolis Center
03:49PM 38.0647 -84.0333 228° Southwest 364 419 36,000  Level Indianapolis Center
03:50PM 37.9794 -84.1383 224° Southwest 367 422 36,000  Level Indianapolis Center
03:51PM 37.8986 -84.2164 217° Southwest 365 420 36,000  Level Indianapolis Center
03:52PM 37.8131 -84.2836 212° Southwest 361 415 36,000  Level Indianapolis Center
03:53PM 37.7317 -84.3500 213° Southwest 349 402 36,000  Level Indianapolis Center
03:54PM 37.6519 -84.4186 214° Southwest 346 398 36,000  Level Indianapolis Center
03:55PM 37.5783 -84.4958 220° Southwest 349 402 36,000  Level Indianapolis Center
03:56PM 37.5017 -84.5689 217° Southwest 348 400 36,000  Level Indianapolis Center
03:57PM 37.4269 -84.6456 219° Southwest 347 399 36,000  Level Indianapolis Center
03:58PM 37.3531 -84.7575 230° Southwest 358 412 36,000  Level Indianapolis Center
04:00PM 37.2922 -84.8594 233° Southwest 364 419 36,000  Level Indianapolis Center
04:01PM 37.2261 -84.9567 230° Southwest 364 419 36,000  Level Indianapolis Center
04:02PM 37.1606 -85.0506 229° Southwest 359 413 36,000  Level Indianapolis Center
04:03PM 37.0914 -85.1442 227° Southwest 364 419 36,000  Level Indianapolis Center
04:04PM 37.0147 -85.2497 228° Southwest 361 415 36,000  Level Indianapolis Center
04:05PM 36.9425 -85.3400 225° Southwest 367 422 36,000  Level Indianapolis Center
04:06PM 36.8708 -85.4333 226° Southwest 373 429 36,000  Level Indianapolis Center
04:07PM 36.8136 -85.5408 236° Southwest 387 445 36,000  Level Indianapolis Center
04:08PM 36.7528 -85.6631 238° Southwest 398 458 36,000  Level Indianapolis Center
04:09PM 36.6967 -85.7828 240° Southwest 401 461 36,000  Level Indianapolis Center
04:10PM 36.6339 -85.8994 236° Southwest 408 470 36,000  Level Indianapolis Center
04:11PM 36.5636 -86.0142 233° Southwest 409 471 36,000  Level Indianapolis Center
04:12PM 36.4922 -86.1281 232° Southwest 413 475 36,000  Level Indianapolis Center
04:13PM 36.4317 -86.2300 234° Southwest 419 482 36,000  Level Memphis Center
04:14PM 36.3578 -86.3292 227° Southwest 414 476 36,000  Level Memphis Center
04:15PM 36.2733 -86.4208 221° Southwest 408 470 36,000  Level Memphis Center
04:16PM 36.1906 -86.5047 219° Southwest 403 464 36,000  Level Memphis Center
04:17PM 36.1158 -86.5853 221° Southwest 398 458 36,000  Level Memphis Center
04:18PM 36.0350 -86.6711 221° Southwest 392 451 36,000  Level Memphis Center
04:19PM 35.9542 -86.7594 222° Southwest 392 451 36,000  Level Memphis Center
04:20PM 35.8797 -86.8547 226° Southwest 392 451 36,000  Level Memphis Center
04:21PM 35.7947 -86.9428 220° Southwest 399 459 36,000  Level Memphis Center
04:22PM 35.7014 -87.0414 221° Southwest 404 465 36,000  Level Memphis Center
04:23PM 35.6139 -87.1267 218° Southwest 409 471 36,000  Level Memphis Center
04:24PM 35.5306 -87.2142 221° Southwest 409 471 36,000  Level Memphis Center
04:25PM 35.4431 -87.3014 219° Southwest 409 471 36,000  Level Memphis Center
04:26PM 35.3700 -87.3856 223° Southwest 414 476 36,000  Level Memphis Center
04:27PM 35.2847 -87.4750 221° Southwest 414 476 36,000  Level Memphis Center
04:28PM 35.1969 -87.5594 218° Southwest 414 476 36,000  Level Memphis Center
04:29PM 35.0989 -87.6517 218° Southwest 414 476 36,000  Level Memphis Center
04:30PM 35.0233 -87.7300 220° Southwest 414 476 36,000  Level Memphis Center
04:31PM 34.9333 -87.8139 217° Southwest 409 471 36,000  Level Memphis Center
04:32PM 34.8456 -87.9128 223° Southwest 404 465 36,000  Level Memphis Center
04:33PM 34.7697 -87.9883 219° Southwest 399 459 36,000  Level Memphis Center
04:34PM 34.6794 -88.0742 218° Southwest 399 459 36,000  Level Memphis Center
04:35PM 34.5875 -88.1725 221° Southwest 415 478 36,000  Level Memphis Center
04:36PM 34.5014 -88.2578 219° Southwest 415 478 36,000  Level Memphis Center
04:37PM 34.4131 -88.3456 219° Southwest 415 478 36,000  Level Memphis Center
04:38PM 34.3267 -88.4306 219° Southwest 415 478 36,000  Level Memphis Center
04:39PM 34.2383 -88.5131 218° Southwest 415 478 36,000  Level Memphis Center
04:40PM 34.1519 -88.6028 221° Southwest 415 478 36,000  Level Memphis Center
04:41PM 34.0633 -88.6872 218° Southwest 415 478 36,000  Level Memphis Center
04:42PM 33.9767 -88.7717 219° Southwest 415 478 36,000  Level Memphis Center
04:43PM 33.8881 -88.8533 217° Southwest 415 478 36,000  Level Memphis Center
04:44PM 33.7994 -88.9375 218° Southwest 415 478 36,000  Level Memphis Center
04:45PM 33.7231 -89.0186 221° Southwest 415 478 36,000  Level Memphis Center
04:46PM 33.6361 -89.1047 220° Southwest 415 478 36,000  Level Memphis Center
04:47PM 33.5453 -89.1908 218° Southwest 415 478 36,000  Level Memphis Center
04:48PM 33.4583 -89.2742 219° Southwest 415 478 36,000  Level Memphis Center
04:49PM 33.3692 -89.3572 218° Southwest 415 478 36,000  Level Memphis Center
04:50PM 33.2697 -89.4528 219° Southwest 415 478 36,000  Level Memphis Center
04:51PM 33.1953 -89.5528 228° Southwest 408 470 36,000  Level Memphis Center
04:52PM 33.1292 -89.6578 233° Southwest 403 464 36,000  Level Memphis Center
04:53PM 33.0589 -89.7672 233° Southwest 408 470 36,000 420 Level Memphis Center
04:54PM 32.9883 -89.8744 232° Southwest 419 482 36,900 480 Climbing Memphis Center
04:55PM 32.9303 -89.9686 234° Southwest 409 471 37,000  Climbing Memphis Center
04:56PM 32.8617 -90.0753 233° Southwest 409 471 37,000  Level Memphis Center
04:57PM 32.7928 -90.1819 232° Southwest 409 471 37,000  Level Memphis Center
04:58PM 32.7219 -90.2906 232° Southwest 414 476 37,000 -60 Level Memphis Center
04:59PM 32.6531 -90.3992 233° Southwest 419 482 36,900 -300 Descending Memphis Center
05:00PM 32.5819 -90.5078 232° Southwest 419 482 36,400 -480 Descending Memphis Center
05:01PM 32.5108 -90.6158 232° Southwest 419 482 36,000 -240 Descending Memphis Center
05:02PM 32.4397 -90.7242 232° Southwest 419 482 36,000  Level Memphis Center
05:03PM 32.3706 -90.8319 233° Southwest 419 482 36,000  Level Memphis Center
05:04PM 32.2722 -90.9839 233° Southwest 421 484 36,000  Level Houston Center
05:05PM 32.2025 -91.0917 233° Southwest 416 479 36,000  Level Houston Center
05:06PM 32.1192 -91.2178 232° Southwest 407 468 36,000  Level Houston Center
05:07PM 32.0494 -91.3222 232° Southwest 406 467 36,000  Level Houston Center
05:08PM 31.9842 -91.4303 235° Southwest 408 470 36,000  Level Houston Center
05:09PM 31.9200 -91.5392 235° Southwest 407 468 36,000  Level Houston Center
05:11PM 31.7906 -91.7583 235° Southwest 410 472 36,000  Level Houston Center
05:12PM 31.7119 -91.8900 235° Southwest 411 473 36,000  Level Houston Center
05:13PM 31.6481 -91.9994 236° Southwest 408 470 36,000  Level Houston Center
05:14PM 31.5858 -92.1019 235° Southwest 406 467 36,000  Level Houston Center
05:15PM 31.5206 -92.2106 235° Southwest 408 470 36,000  Level Houston Center
05:16PM 31.4561 -92.3186 235° Southwest 407 468 36,000  Level Houston Center
05:17PM 31.3789 -92.4483 235° Southwest 407 468 36,000  Level Houston Center
05:18PM 31.3108 -92.5558 233° Southwest 410 472 36,000  Level Houston Center
05:19PM 31.2478 -92.6656 236° Southwest 409 471 36,000  Level Houston Center
05:21PM 31.1825 -92.7728 235° Southwest 405 466 36,000  Level Houston Center
05:22PM 31.1164 -92.8803 234° Southwest 407 468 36,000  Level Houston Center
05:23PM 31.0386 -93.0075 235° Southwest 403 464 36,000 -240 Level Houston Center
05:24PM 30.9725 -93.1158 235° Southwest 408 470 35,600 -1,080 Descending Houston Center
05:25PM 30.9072 -93.2233 235° Southwest 408 470 33,800 -1,920 Descending Houston Center
05:26PM 30.8400 -93.3322 234° Southwest 413 475 31,700 -2,040 Descending Houston Center
05:27PM 30.7744 -93.4408 235° Southwest 413 475 29,600 -2,100 Descending Houston Center
05:28PM 30.7061 -93.5497 234° Southwest 418 481 27,400 -2,280 Descending Houston Center
05:29PM 30.6247 -93.6842 235° Southwest 427 491 24,900 -2,280 Descending Houston Center
05:30PM 30.5525 -93.7989 234° Southwest 433 498 22,800 -2,100 Descending Houston Center
05:31PM 30.4867 -93.9033 234° Southwest 422 486 20,600 -2,160 Descending Houston Center
05:32PM 30.4208 -94.0083 234° Southwest 409 471 18,400 -2,280 Descending Houston Center
05:33PM 30.3433 -94.1328 234° Southwest 401 461 15,900 -2,340 Descending Houston Center
05:34PM 30.3017 -94.1983 234° Southwest 396 456 14,500 -1,860 Descending Houston Center
05:35PM 30.2222 -94.3328 236° Southwest 374 430 12,100 -1,560 Descending Houston Center
05:36PM 30.1894 -94.4236 247° West 319 367 11,100 -1,200 Descending Houston Center
05:37PM 30.1594 -94.5050 247° West 286 329 10,000 -1,380 Descending Houston Center
05:38PM 30.1264 -94.6111 250° West 283 326 8,100 -1,320 Descending Houston Center
05:39PM 30.1006 -94.6964 251° West 282 325 7,000 -1,140 Descending Houston Center
05:40PM 30.0761 -94.7719 250° West 282 325 6,100 -1,260 Descending Houston Center
05:41PM 30.0514 -94.8644 253° West 283 326 4,700 -1,200 Descending Houston Center
05:42PM 30.0386 -94.9506 260° West 270 311 3,700 -840 Descending Houston Center
05:43PM 30.0217 -95.0506 259° West 263 303 2,800 -660 Descending Houston Center
05:44PM 30.0097 -95.1133 258° West 259 298 2,400 -480 Descending Houston Center
05:45PM 30.0061 -95.1886 267° West 256 295 2,000 -480 Descending Houston Center